createdAt,value
2018-12-16T00:00:28.529Z,-4.00
2018-12-16T00:01:36.574Z,-3.99
2018-12-16T00:02:44.663Z,-4.03
2018-12-16T00:03:52.677Z,-3.97
2018-12-16T00:05:00.750Z,-4.00
2018-12-16T00:06:08.829Z,-4.03
2018-12-16T00:07:16.839Z,-4.01
2018-12-16T00:08:24.862Z,-4.04
2018-12-16T00:09:32.940Z,-4.10
2018-12-16T00:10:40.989Z,-4.01
2018-12-16T00:11:49.017Z,-4.00
2018-12-16T00:12:57.249Z,-4.04
2018-12-16T00:14:05.112Z,-3.94
2018-12-16T00:15:13.195Z,-3.93
2018-12-16T00:16:21.246Z,-3.96
2018-12-16T00:17:29.316Z,-3.94
2018-12-16T00:18:37.369Z,-3.88
2018-12-16T00:19:45.382Z,-3.90
2018-12-16T00:20:53.450Z,-3.91
2018-12-16T00:22:01.495Z,-3.93
2018-12-16T00:23:09.549Z,-3.91
2018-12-16T00:24:17.633Z,-3.96
2018-12-16T00:25:26.745Z,-3.85
2018-12-16T00:26:33.696Z,-3.83
2018-12-16T00:27:41.759Z,-3.79
2018-12-16T00:28:49.799Z,-3.83
2018-12-16T00:29:57.860Z,-3.82
2018-12-16T00:31:05.915Z,-3.83
2018-12-16T00:32:13.956Z,-3.81
2018-12-16T00:33:22.005Z,-3.79
2018-12-16T00:34:30.049Z,-3.78
2018-12-16T00:35:38.114Z,-3.76
2018-12-16T00:36:46.177Z,-3.81
2018-12-16T00:37:54.199Z,-3.71
2018-12-16T00:39:02.256Z,-3.69
2018-12-16T00:40:10.303Z,-3.67
2018-12-16T00:41:18.362Z,-3.71
2018-12-16T00:42:26.504Z,-3.78
2018-12-16T00:43:34.483Z,-3.75
2018-12-16T00:44:42.539Z,-3.78
2018-12-16T00:45:50.568Z,-3.75
2018-12-16T00:46:58.636Z,-3.76
2018-12-16T00:48:06.691Z,-3.79
2018-12-16T00:49:14.706Z,-3.81
2018-12-16T00:50:22.829Z,-3.81
2018-12-16T00:51:30.828Z,-3.76
2018-12-16T00:52:38.850Z,-3.78
2018-12-16T00:53:46.944Z,-3.72
2018-12-16T00:54:54.961Z,-3.72
2018-12-16T00:56:03.013Z,-3.71
2018-12-16T00:57:11.081Z,-3.78
2018-12-16T00:58:19.114Z,-3.71
2018-12-16T00:59:27.160Z,-3.78
2018-12-16T01:00:35.198Z,-3.66
2018-12-16T01:01:43.285Z,-3.57
2018-12-16T01:02:51.324Z,-3.63
2018-12-16T01:03:59.384Z,-3.63
2018-12-16T01:05:07.443Z,-3.59
2018-12-16T01:06:15.505Z,-3.59
2018-12-16T01:07:23.545Z,-3.62
2018-12-16T01:08:31.588Z,-3.53
2018-12-16T01:09:39.670Z,-3.53
2018-12-16T01:10:47.695Z,-3.56
2018-12-16T01:11:55.736Z,-3.56
2018-12-16T01:13:03.792Z,-3.48
2018-12-16T01:14:11.821Z,-3.48
2018-12-16T01:15:19.891Z,-3.38
2018-12-16T01:16:27.939Z,-3.53
2018-12-16T01:17:35.990Z,-3.39
2018-12-16T01:18:44.046Z,-3.36
2018-12-16T01:19:52.089Z,-3.43
2018-12-16T01:21:00.163Z,-3.33
2018-12-16T01:22:08.195Z,-3.41
2018-12-16T01:23:16.250Z,-3.39
2018-12-16T01:24:24.296Z,-3.33
2018-12-16T01:25:32.365Z,-3.38
2018-12-16T01:26:40.413Z,-3.39
2018-12-16T01:27:48.452Z,-3.35
2018-12-16T01:28:56.512Z,-3.28
2018-12-16T01:30:04.548Z,-3.31
2018-12-16T01:31:12.614Z,-3.30
2018-12-16T01:32:20.738Z,-3.28
2018-12-16T01:33:28.694Z,-3.25
2018-12-16T01:34:36.746Z,-3.25
2018-12-16T01:35:44.794Z,-3.21
2018-12-16T01:36:52.853Z,-3.24
2018-12-16T01:38:00.898Z,-3.14
2018-12-16T01:39:08.992Z,-3.24
2018-12-16T01:40:17.018Z,-3.17
2018-12-16T01:41:25.035Z,-3.17
2018-12-16T01:42:33.126Z,-3.14
2018-12-16T01:43:41.165Z,-3.12
2018-12-16T01:44:49.201Z,-3.07
2018-12-16T01:45:57.260Z,-3.05
2018-12-16T01:47:05.352Z,-3.02
2018-12-16T01:48:13.359Z,-2.97
2018-12-16T01:49:21.420Z,-3.00
2018-12-16T01:50:29.459Z,-3.03
2018-12-16T01:51:37.526Z,-2.91
2018-12-16T01:52:50.063Z,-2.96
2018-12-16T01:53:53.631Z,-2.96
2018-12-16T01:55:01.666Z,-2.94
2018-12-16T01:56:09.718Z,-2.91
2018-12-16T01:57:17.741Z,-2.88
2018-12-16T01:58:25.825Z,-2.92
2018-12-16T01:59:33.882Z,-2.84
2018-12-16T02:00:41.934Z,-2.86
2018-12-16T02:01:49.974Z,-2.88
2018-12-16T02:02:58.037Z,-2.84
2018-12-16T02:04:06.088Z,-2.79
2018-12-16T02:05:14.138Z,-2.78
2018-12-16T02:06:22.186Z,-2.88
2018-12-16T02:07:30.234Z,-2.86
2018-12-16T02:08:38.298Z,-2.85
2018-12-16T02:09:46.351Z,-2.79
2018-12-16T02:10:54.401Z,-2.89
2018-12-16T02:12:02.448Z,-2.91
2018-12-16T02:13:10.504Z,-2.89
2018-12-16T02:14:18.539Z,-2.86
2018-12-16T02:15:26.600Z,-2.86
2018-12-16T02:16:34.641Z,-2.92
2018-12-16T02:17:42.719Z,-2.94
2018-12-16T02:18:50.770Z,-2.92
2018-12-16T02:19:58.816Z,-2.94
2018-12-16T02:21:06.855Z,-3.06
2018-12-16T02:22:14.919Z,-2.91
2018-12-16T02:23:22.949Z,-2.94
2018-12-16T02:24:31.003Z,-2.94
2018-12-16T02:25:39.050Z,-3.09
2018-12-16T02:26:47.098Z,-3.05
2018-12-16T02:27:55.130Z,-3.09
2018-12-16T02:29:03.206Z,-3.18
2018-12-16T02:30:11.252Z,-3.15
2018-12-16T02:31:19.322Z,-3.12
2018-12-16T02:32:27.370Z,-3.17
2018-12-16T02:33:35.425Z,-3.10
2018-12-16T02:34:43.448Z,-3.18
2018-12-16T02:35:51.526Z,-3.12
2018-12-16T02:36:59.579Z,-3.14
2018-12-16T02:38:07.629Z,-3.21
2018-12-16T02:39:15.653Z,-3.10
2018-12-16T02:40:23.747Z,-3.10
2018-12-16T02:41:31.766Z,-3.21
2018-12-16T02:42:39.825Z,-3.21
2018-12-16T02:43:47.875Z,-3.24
2018-12-16T02:44:55.916Z,-3.25
2018-12-16T02:46:05.079Z,-3.24
2018-12-16T02:47:12.035Z,-3.27
2018-12-16T02:48:20.082Z,-3.39
2018-12-16T02:49:28.112Z,-3.41
2018-12-16T02:50:36.189Z,-3.39
2018-12-16T02:51:44.242Z,-3.39
2018-12-16T02:52:52.289Z,-3.39
2018-12-16T02:54:00.324Z,-3.42
2018-12-16T02:55:08.395Z,-3.33
2018-12-16T02:56:16.470Z,-3.28
2018-12-16T02:57:24.507Z,-3.27
2018-12-16T02:58:32.545Z,-3.21
2018-12-16T02:59:40.611Z,-3.24
2018-12-16T03:00:48.670Z,-3.27
2018-12-16T03:01:56.689Z,-3.24
2018-12-16T03:03:04.731Z,-3.28
2018-12-16T03:04:12.815Z,-3.31
2018-12-16T03:05:20.835Z,-3.30
2018-12-16T03:06:28.892Z,-3.28
2018-12-16T03:07:36.955Z,-3.30
2018-12-16T03:08:45.025Z,-3.23
2018-12-16T03:09:53.047Z,-3.23
2018-12-16T03:11:01.089Z,-3.28
2018-12-16T03:12:09.133Z,-3.23
2018-12-16T03:13:17.201Z,-3.27
2018-12-16T03:14:25.245Z,-3.21
2018-12-16T03:15:33.311Z,-3.24
2018-12-16T03:16:41.375Z,-3.21
2018-12-16T03:17:49.397Z,-3.21
2018-12-16T03:18:57.468Z,-3.20
2018-12-16T03:20:05.518Z,-3.18
2018-12-16T03:21:13.577Z,-3.12
2018-12-16T03:22:21.605Z,-3.09
2018-12-16T03:23:29.666Z,-3.15
2018-12-16T03:24:37.714Z,-3.15
2018-12-16T03:25:45.764Z,-3.00
2018-12-16T03:26:53.807Z,-3.12
2018-12-16T03:28:01.862Z,-3.07
2018-12-16T03:29:09.925Z,-3.09
2018-12-16T03:30:17.952Z,-3.03
2018-12-16T03:31:26.070Z,-2.97
2018-12-16T03:32:34.068Z,-3.05
2018-12-16T03:33:42.117Z,-3.07
2018-12-16T03:34:50.173Z,-3.06
2018-12-16T03:35:58.229Z,-3.02
2018-12-16T03:37:06.272Z,-3.00
2018-12-16T03:38:14.314Z,-2.97
2018-12-16T03:39:22.376Z,-2.99
2018-12-16T03:40:30.419Z,-2.97
2018-12-16T03:41:38.495Z,-2.96
2018-12-16T03:42:46.555Z,-2.99
2018-12-16T03:43:54.587Z,-2.97
2018-12-16T03:45:02.686Z,-2.96
2018-12-16T03:46:10.673Z,-2.96
2018-12-16T03:47:18.749Z,-2.99
2018-12-16T03:48:26.809Z,-2.94
2018-12-16T03:49:34.826Z,-2.99
2018-12-16T03:50:42.917Z,-2.89
2018-12-16T03:51:50.949Z,-2.94
2018-12-16T03:52:58.994Z,-2.89
2018-12-16T03:54:07.047Z,-2.84
2018-12-16T03:55:15.247Z,-2.81
2018-12-16T03:56:23.141Z,-2.84
2018-12-16T03:57:31.195Z,-2.79
2018-12-16T03:58:39.253Z,-2.78
2018-12-16T03:59:47.301Z,-2.78
2018-12-16T04:00:55.358Z,-2.78
2018-12-16T04:02:03.404Z,-2.81
2018-12-16T04:03:11.442Z,-2.86
2018-12-16T04:04:19.500Z,-2.81
2018-12-16T04:05:27.583Z,-2.79
2018-12-16T04:06:35.603Z,-2.82
2018-12-16T04:07:43.660Z,-2.79
2018-12-16T04:08:51.725Z,-2.81
2018-12-16T04:09:59.774Z,-2.78
2018-12-16T04:11:07.817Z,-2.79
2018-12-16T04:12:15.861Z,-2.77
2018-12-16T04:13:23.918Z,-2.81
2018-12-16T04:14:31.992Z,-2.78
2018-12-16T04:15:40.031Z,-2.77
2018-12-16T04:16:48.089Z,-2.77
2018-12-16T04:17:56.106Z,-2.70
2018-12-16T04:19:04.179Z,-2.70
2018-12-16T04:20:12.224Z,-2.70
2018-12-16T04:21:20.277Z,-2.66
2018-12-16T04:22:28.406Z,-2.61
2018-12-16T04:23:36.405Z,-2.63
2018-12-16T04:24:44.425Z,-2.66
2018-12-16T04:25:52.482Z,-2.56
2018-12-16T04:27:00.547Z,-2.58
2018-12-16T04:28:09.351Z,-2.74
2018-12-16T04:29:16.636Z,-2.60
2018-12-16T04:30:24.683Z,-2.58
2018-12-16T04:31:32.750Z,-2.55
2018-12-16T04:32:40.786Z,-2.58
2018-12-16T04:33:48.843Z,-2.73
2018-12-16T04:34:56.887Z,-2.66
2018-12-16T04:36:04.943Z,-2.56
2018-12-16T04:37:13.019Z,-2.58
2018-12-16T04:38:21.028Z,-2.61
2018-12-16T04:39:29.110Z,-2.56
2018-12-16T04:40:37.155Z,-2.58
2018-12-16T04:41:45.225Z,-2.56
2018-12-16T04:42:53.254Z,-2.55
2018-12-16T04:44:01.319Z,-2.61
2018-12-16T04:45:09.354Z,-2.61
2018-12-16T04:46:17.434Z,-2.66
2018-12-16T04:47:25.460Z,-2.67
2018-12-16T04:48:33.514Z,-2.66
2018-12-16T04:49:41.573Z,-2.64
2018-12-16T04:50:49.609Z,-2.61
2018-12-16T04:51:57.663Z,-2.56
2018-12-16T04:53:05.725Z,-2.60
2018-12-16T04:54:13.766Z,-2.55
2018-12-16T04:55:21.831Z,-2.52
2018-12-16T04:56:29.853Z,-2.50
2018-12-16T04:57:37.916Z,-2.58
2018-12-16T04:58:45.975Z,-2.50
2018-12-16T04:59:54.020Z,-2.63
2018-12-16T05:01:02.065Z,-2.58
2018-12-16T05:02:10.129Z,-2.64
2018-12-16T05:03:18.169Z,-2.61
2018-12-16T05:04:26.220Z,-2.61
2018-12-16T05:05:34.289Z,-2.56
2018-12-16T05:06:42.339Z,-2.53
2018-12-16T05:07:50.398Z,-2.53
2018-12-16T05:08:58.436Z,-2.50
2018-12-16T05:10:06.502Z,-2.53
2018-12-16T05:11:14.534Z,-2.56
2018-12-16T05:12:22.595Z,-2.61
2018-12-16T05:13:30.652Z,-2.58
2018-12-16T05:14:38.704Z,-2.64
2018-12-16T05:15:46.751Z,-2.64
2018-12-16T05:16:54.799Z,-2.64
2018-12-16T05:18:02.858Z,-2.68
2018-12-16T05:19:10.886Z,-2.67
2018-12-16T05:20:18.952Z,-2.71
2018-12-16T05:21:27.000Z,-2.74
2018-12-16T05:22:35.046Z,-2.78
2018-12-16T05:23:43.099Z,-2.82
2018-12-16T05:24:51.149Z,-2.77
2018-12-16T05:25:59.188Z,-2.73
2018-12-16T05:27:07.263Z,-2.82
2018-12-16T05:28:15.339Z,-2.85
2018-12-16T05:29:23.372Z,-2.73
2018-12-16T05:30:32.065Z,-2.73
2018-12-16T05:31:39.456Z,-2.74
2018-12-16T05:32:47.536Z,-2.67
2018-12-16T05:33:55.561Z,-2.66
2018-12-16T05:35:03.617Z,-2.56
2018-12-16T05:36:11.677Z,-2.58
2018-12-16T05:37:19.729Z,-2.56
2018-12-16T05:38:27.775Z,-2.63
2018-12-16T05:39:35.830Z,-2.56
2018-12-16T05:40:43.879Z,-2.50
2018-12-16T05:41:52.081Z,-2.52
2018-12-16T05:42:59.977Z,-2.55
2018-12-16T05:44:08.033Z,-2.48
2018-12-16T05:45:16.079Z,-2.48
2018-12-16T05:46:24.142Z,-2.49
2018-12-16T05:47:32.220Z,-2.42
2018-12-16T05:48:40.242Z,-2.42
2018-12-16T05:49:48.278Z,-2.40
2018-12-16T05:50:56.360Z,-2.40
2018-12-16T05:52:04.386Z,-2.37
2018-12-16T05:53:12.442Z,-2.45
2018-12-16T05:54:20.507Z,-2.46
2018-12-16T05:55:28.546Z,-2.46
2018-12-16T05:56:36.644Z,-2.45
2018-12-16T05:57:44.627Z,-2.48
2018-12-16T05:58:52.701Z,-2.49
2018-12-16T06:00:00.752Z,-2.50
2018-12-16T06:01:08.797Z,-2.49
2018-12-16T06:02:16.860Z,-2.45
2018-12-16T06:03:24.894Z,-2.34
2018-12-16T06:04:32.961Z,-2.27
2018-12-16T06:05:41.010Z,-2.29
2018-12-16T06:06:49.053Z,-2.29
2018-12-16T06:07:57.125Z,-2.30
2018-12-16T06:09:05.177Z,-2.29
2018-12-16T06:10:13.216Z,-2.29
2018-12-16T06:11:21.254Z,-2.21
2018-12-16T06:12:29.338Z,-2.23
2018-12-16T06:13:37.388Z,-2.20
2018-12-16T06:14:45.421Z,-2.21
2018-12-16T06:15:53.495Z,-2.21
2018-12-16T06:17:01.534Z,-2.18
2018-12-16T06:18:09.575Z,-2.16
2018-12-16T06:19:17.632Z,-2.20
2018-12-16T06:20:25.676Z,-2.18
2018-12-16T06:21:33.726Z,-2.15
2018-12-16T06:22:41.798Z,-2.23
2018-12-16T06:23:55.447Z,-2.06
2018-12-16T06:24:57.879Z,-2.15
2018-12-16T06:26:05.934Z,-2.16
2018-12-16T06:27:13.997Z,-2.06
2018-12-16T06:28:22.040Z,-2.12
2018-12-16T06:29:30.112Z,-2.03
2018-12-16T06:30:38.157Z,-1.98
2018-12-16T06:31:46.210Z,-2.05
2018-12-16T06:32:54.246Z,-2.08
2018-12-16T06:34:02.279Z,-2.00
2018-12-16T06:35:10.352Z,-2.00
2018-12-16T06:36:18.400Z,-1.90
2018-12-16T06:37:26.523Z,-2.00
2018-12-16T06:38:34.499Z,-2.02
2018-12-16T06:39:42.567Z,-1.95
2018-12-16T06:40:50.606Z,-1.95
2018-12-16T06:41:58.656Z,-1.95
2018-12-16T06:43:06.738Z,-1.95
2018-12-16T06:44:14.768Z,-1.97
2018-12-16T06:45:22.827Z,-1.97
2018-12-16T06:46:30.866Z,-1.98
2018-12-16T06:47:38.928Z,-1.91
2018-12-16T06:48:46.974Z,-1.97
2018-12-16T06:49:55.030Z,-1.95
2018-12-16T06:51:03.077Z,-1.95
2018-12-16T06:52:11.123Z,-1.98
2018-12-16T06:53:19.192Z,-1.92
2018-12-16T06:54:27.253Z,-1.97
2018-12-16T06:55:35.275Z,-1.97
2018-12-16T06:56:43.342Z,-2.02
2018-12-16T06:57:51.389Z,-1.88
2018-12-16T06:58:59.434Z,-1.95
2018-12-16T07:00:07.492Z,-1.98
2018-12-16T07:01:16.066Z,-1.95
2018-12-16T07:02:23.592Z,-1.97
2018-12-16T07:03:31.644Z,-1.97
2018-12-16T07:04:39.713Z,-1.97
2018-12-16T07:05:47.744Z,-1.92
2018-12-16T07:06:55.806Z,-2.00
2018-12-16T07:08:04.088Z,-1.92
2018-12-16T07:09:11.919Z,-1.95
2018-12-16T07:10:19.971Z,-1.92
2018-12-16T07:11:28.010Z,-2.00
2018-12-16T07:12:36.054Z,-1.97
2018-12-16T07:13:44.111Z,-1.97
2018-12-16T07:14:52.169Z,-1.87
2018-12-16T07:16:00.199Z,-1.85
2018-12-16T07:17:08.274Z,-1.90
2018-12-16T07:18:16.348Z,-1.98
2018-12-16T07:19:24.392Z,-1.91
2018-12-16T07:20:32.418Z,-1.94
2018-12-16T07:21:40.508Z,-1.97
2018-12-16T07:22:48.542Z,-1.98
2018-12-16T07:23:56.591Z,-1.97
2018-12-16T07:25:04.643Z,-1.98
2018-12-16T07:26:12.692Z,-1.92
2018-12-16T07:27:20.736Z,-1.91
2018-12-16T07:28:28.809Z,-1.88
2018-12-16T07:29:36.849Z,-1.91
2018-12-16T07:30:44.888Z,-1.85
2018-12-16T07:31:52.934Z,-1.88
2018-12-16T07:33:01.012Z,-1.85
2018-12-16T07:34:09.054Z,-1.91
2018-12-16T07:35:17.102Z,-1.91
2018-12-16T07:36:25.122Z,-1.87
2018-12-16T07:37:33.206Z,-1.90
2018-12-16T07:38:41.291Z,-1.97
2018-12-16T07:39:49.339Z,-1.95
2018-12-16T07:40:57.364Z,-1.92
2018-12-16T07:42:05.433Z,-1.95
2018-12-16T07:43:13.462Z,-1.95
2018-12-16T07:44:21.524Z,-1.98
2018-12-16T07:45:29.572Z,-2.02
2018-12-16T07:46:37.629Z,-1.97
2018-12-16T07:47:46.372Z,-1.97
2018-12-16T07:48:53.725Z,-1.92
2018-12-16T07:50:03.645Z,-1.87
2018-12-16T07:51:09.882Z,-1.92
2018-12-16T07:52:17.918Z,-1.95
2018-12-16T07:53:25.936Z,-1.84
2018-12-16T07:54:33.970Z,-1.84
2018-12-16T07:55:42.038Z,-1.80
2018-12-16T07:56:50.128Z,-1.77
2018-12-16T07:57:58.169Z,-1.74
2018-12-16T07:59:06.179Z,-1.74
2018-12-16T08:00:14.236Z,-1.79
2018-12-16T08:01:22.300Z,-1.77
2018-12-16T08:02:33.000Z,-1.74
2018-12-16T08:03:41.527Z,-1.70
2018-12-16T08:04:49.602Z,-1.62
2018-12-16T08:05:58.122Z,-1.66
2018-12-16T08:07:02.556Z,-1.58
2018-12-16T08:08:10.610Z,-1.54
2018-12-16T08:09:18.654Z,-1.67
2018-12-16T08:10:26.728Z,-1.58
2018-12-16T08:11:34.762Z,-1.62
2018-12-16T08:12:42.805Z,-1.51
2018-12-16T08:13:50.854Z,-1.55
2018-12-16T08:14:58.917Z,-1.48
2018-12-16T08:16:06.996Z,-1.51
2018-12-16T08:17:15.028Z,-1.48
2018-12-16T08:18:23.080Z,-1.49
2018-12-16T08:19:31.137Z,-1.51
2018-12-16T08:20:39.179Z,-1.35
2018-12-16T08:21:47.255Z,-1.41
2018-12-16T08:22:55.281Z,-1.41
2018-12-16T08:24:03.338Z,-1.40
2018-12-16T08:25:11.410Z,-1.46
2018-12-16T08:26:19.449Z,-1.46
2018-12-16T08:27:28.129Z,-1.38
2018-12-16T08:28:35.608Z,-1.37
2018-12-16T08:29:43.621Z,-1.41
2018-12-16T08:30:51.649Z,-1.41
2018-12-16T08:31:59.719Z,-1.41
2018-12-16T08:33:07.761Z,-1.40
2018-12-16T08:34:15.833Z,-1.35
2018-12-16T08:35:23.881Z,-1.31
2018-12-16T08:36:32.100Z,-1.27
2018-12-16T08:37:39.996Z,-1.20
2018-12-16T08:38:48.018Z,-1.25
2018-12-16T08:39:56.066Z,-1.12
2018-12-16T08:41:04.100Z,-1.09
2018-12-16T08:42:12.188Z,-1.01
2018-12-16T08:43:20.570Z,-1.10
2018-12-16T08:44:28.314Z,-0.98
2018-12-16T08:45:36.345Z,-0.95
2018-12-16T08:46:44.406Z,-0.92
2018-12-16T08:47:52.493Z,-0.89
2018-12-16T08:49:00.981Z,-0.80
2018-12-16T08:50:08.559Z,-0.76
2018-12-16T08:51:16.628Z,-0.70
2018-12-16T08:52:24.665Z,-0.51
2018-12-16T08:53:32.697Z,-0.54
2018-12-16T08:54:40.947Z,-0.49
2018-12-16T08:55:49.058Z,-0.43
2018-12-16T08:56:56.875Z,-0.34
2018-12-16T08:58:05.055Z,-0.34
2018-12-16T08:59:12.973Z,-0.25
2018-12-16T09:00:21.022Z,-0.26
2018-12-16T09:01:29.333Z,-0.11
2018-12-16T09:02:37.142Z,-0.10
2018-12-16T09:03:45.168Z,-0.07
2018-12-16T09:04:53.348Z,-0.07
2018-12-16T09:06:01.360Z,0.00
2018-12-16T09:07:09.380Z,-0.04
2018-12-16T09:08:17.413Z,0.02
2018-12-16T09:09:25.418Z,0.03
2018-12-16T09:10:34.194Z,0.08
2018-12-16T09:11:41.559Z,0.15
2018-12-16T09:12:49.619Z,0.00
2018-12-16T09:13:57.662Z,0.17
2018-12-16T09:15:05.741Z,0.14
2018-12-16T09:16:13.778Z,0.14
2018-12-16T09:17:21.830Z,0.23
2018-12-16T09:18:29.864Z,0.24
2018-12-16T09:19:37.921Z,0.24
2018-12-16T09:20:45.980Z,0.24
2018-12-16T09:21:54.035Z,0.32
2018-12-16T09:23:02.114Z,0.39
2018-12-16T09:24:10.148Z,0.46
2018-12-16T09:25:18.213Z,0.50
2018-12-16T09:26:26.260Z,0.50
2018-12-16T09:27:34.305Z,0.65
2018-12-16T09:28:42.388Z,0.62
2018-12-16T09:29:50.451Z,0.66
2018-12-16T09:30:58.527Z,0.69
2018-12-16T09:32:06.554Z,0.83
2018-12-16T09:33:14.593Z,0.86
2018-12-16T09:34:22.673Z,0.93
2018-12-16T09:35:30.722Z,0.87
2018-12-16T09:36:38.750Z,0.97
2018-12-16T09:37:46.804Z,1.04
2018-12-16T09:38:54.847Z,1.33
2018-12-16T09:40:02.930Z,1.54
2018-12-16T09:41:10.968Z,1.76
2018-12-16T09:42:19.026Z,2.02
2018-12-16T09:43:27.075Z,2.21
2018-12-16T09:44:35.125Z,2.48
2018-12-16T09:45:49.188Z,2.72
2018-12-16T09:46:51.234Z,2.87
2018-12-16T09:47:59.288Z,2.93
2018-12-16T09:49:07.348Z,3.14
2018-12-16T09:50:15.388Z,3.35
2018-12-16T09:51:23.445Z,3.39
2018-12-16T09:52:31.542Z,3.54
2018-12-16T09:53:39.586Z,3.40
2018-12-16T09:54:47.628Z,3.57
2018-12-16T09:55:55.675Z,3.57
2018-12-16T09:57:03.738Z,3.68
2018-12-16T09:58:11.802Z,3.70
2018-12-16T09:59:19.850Z,3.66
2018-12-16T10:00:27.912Z,3.68
2018-12-16T10:01:35.945Z,3.69
2018-12-16T10:02:44.002Z,3.75
2018-12-16T10:03:52.065Z,3.69
2018-12-16T10:05:00.126Z,3.73
2018-12-16T10:06:08.206Z,3.73
2018-12-16T10:07:16.249Z,3.68
2018-12-16T10:08:24.324Z,3.62
2018-12-16T10:09:32.365Z,3.58
2018-12-16T10:10:40.429Z,3.54
2018-12-16T10:11:48.488Z,3.60
2018-12-16T10:12:56.528Z,3.62
2018-12-16T10:14:04.590Z,3.65
2018-12-16T10:15:12.645Z,3.72
2018-12-16T10:16:20.694Z,3.75
2018-12-16T10:17:28.840Z,3.73
2018-12-16T10:18:36.822Z,3.69
2018-12-16T10:19:44.856Z,3.73
2018-12-16T10:20:52.922Z,3.65
2018-12-16T10:22:00.998Z,3.62
2018-12-16T10:23:09.037Z,3.68
2018-12-16T10:24:17.133Z,3.60
2018-12-16T10:25:25.136Z,3.61
2018-12-16T10:26:33.216Z,3.60
2018-12-16T10:27:41.292Z,3.57
2018-12-16T10:28:49.316Z,3.39
2018-12-16T10:29:57.371Z,3.33
2018-12-16T10:31:05.431Z,3.24
2018-12-16T10:32:13.507Z,3.11
2018-12-16T10:33:21.550Z,3.05
2018-12-16T10:34:29.631Z,2.99
2018-12-16T10:35:37.666Z,3.10
2018-12-16T10:36:45.711Z,3.03
2018-12-16T10:37:53.767Z,2.96
2018-12-16T10:39:02.021Z,2.84
2018-12-16T10:40:09.865Z,2.93
2018-12-16T10:41:17.942Z,2.77
2018-12-16T10:42:26.010Z,2.71
2018-12-16T10:43:34.051Z,2.77
2018-12-16T10:44:42.116Z,2.74
2018-12-16T10:45:50.166Z,2.61
2018-12-16T10:46:58.233Z,2.63
2018-12-16T10:48:06.308Z,2.72
2018-12-16T10:49:14.343Z,2.71
2018-12-16T10:50:22.379Z,2.96
2018-12-16T10:51:30.446Z,2.99
2018-12-16T10:52:38.521Z,3.08
2018-12-16T10:53:46.566Z,3.11
2018-12-16T10:54:58.284Z,3.10
2018-12-16T10:56:02.659Z,3.11
2018-12-16T10:57:10.725Z,3.33
2018-12-16T10:58:18.786Z,3.35
2018-12-16T10:59:26.871Z,3.42
2018-12-16T11:00:34.918Z,3.47
2018-12-16T11:01:42.941Z,3.40
2018-12-16T11:02:51.532Z,3.35
2018-12-16T11:03:59.061Z,3.32
2018-12-16T11:05:07.117Z,3.31
2018-12-16T11:06:15.165Z,3.35
2018-12-16T11:07:23.255Z,3.35
2018-12-16T11:08:31.276Z,3.39
2018-12-16T11:09:39.339Z,3.40
2018-12-16T11:10:47.393Z,3.42
2018-12-16T11:11:55.448Z,3.52
2018-12-16T11:13:03.515Z,3.48
2018-12-16T11:14:11.565Z,3.69
2018-12-16T11:15:19.626Z,3.51
2018-12-16T11:16:27.676Z,3.69
2018-12-16T11:17:35.723Z,3.55
2018-12-16T11:18:43.794Z,3.54
2018-12-16T11:19:51.863Z,3.48
2018-12-16T11:20:59.904Z,3.54
2018-12-16T11:22:07.952Z,3.35
2018-12-16T11:23:16.023Z,3.39
2018-12-16T11:24:24.256Z,3.24
2018-12-16T11:25:32.128Z,3.21
2018-12-16T11:26:40.187Z,3.28
2018-12-16T11:27:48.265Z,3.29
2018-12-16T11:28:56.316Z,3.24
2018-12-16T11:30:04.361Z,3.35
2018-12-16T11:31:12.412Z,3.33
2018-12-16T11:32:20.503Z,3.35
2018-12-16T11:33:28.538Z,3.33
2018-12-16T11:34:36.595Z,3.33
2018-12-16T11:35:44.656Z,3.31
2018-12-16T11:36:52.704Z,3.39
2018-12-16T11:38:00.756Z,3.39
2018-12-16T11:39:08.827Z,3.51
2018-12-16T11:40:16.864Z,3.58
2018-12-16T11:41:24.901Z,3.66
2018-12-16T11:42:33.016Z,3.80
2018-12-16T11:43:41.081Z,3.78
2018-12-16T11:44:49.127Z,3.76
2018-12-16T11:45:57.167Z,3.91
2018-12-16T11:47:05.220Z,3.86
2018-12-16T11:48:13.311Z,3.73
2018-12-16T11:49:21.331Z,3.79
2018-12-16T11:50:29.411Z,3.91
2018-12-16T11:51:37.430Z,3.94
2018-12-16T11:52:45.509Z,3.93
2018-12-16T11:53:53.593Z,3.88
2018-12-16T11:55:01.622Z,3.98
2018-12-16T11:56:09.769Z,3.96
2018-12-16T11:57:17.736Z,4.11
2018-12-16T11:58:25.810Z,4.09
2018-12-16T11:59:33.863Z,4.08
2018-12-16T12:00:41.917Z,4.04
2018-12-16T12:01:49.961Z,4.16
2018-12-16T12:02:58.022Z,4.09
2018-12-16T12:04:06.083Z,3.97
2018-12-16T12:05:14.121Z,3.88
2018-12-16T12:06:22.217Z,3.76
2018-12-16T12:07:30.258Z,3.58
2018-12-16T12:08:38.317Z,3.58
2018-12-16T12:09:46.362Z,3.58
2018-12-16T12:10:54.417Z,3.66
2018-12-16T12:12:02.483Z,3.73
2018-12-16T12:13:10.554Z,3.70
2018-12-16T12:14:18.623Z,3.76
2018-12-16T12:15:26.637Z,3.78
2018-12-16T12:16:34.719Z,3.88
2018-12-16T12:17:42.760Z,3.91
2018-12-16T12:18:50.855Z,3.96
2018-12-16T12:19:58.899Z,3.91
2018-12-16T12:21:06.918Z,3.80
2018-12-16T12:22:15.558Z,3.94
2018-12-16T12:23:23.096Z,3.96
2018-12-16T12:24:31.398Z,3.83
2018-12-16T12:25:39.159Z,3.76
2018-12-16T12:26:47.250Z,3.73
2018-12-16T12:27:55.441Z,3.83
2018-12-16T12:29:03.381Z,3.75
2018-12-16T12:30:11.412Z,3.68
2018-12-16T12:31:19.562Z,3.69
2018-12-16T12:32:27.590Z,3.51
2018-12-16T12:33:35.566Z,3.43
2018-12-16T12:34:43.617Z,3.36
2018-12-16T12:35:51.675Z,3.42
2018-12-16T12:36:59.719Z,3.40
2018-12-16T12:38:07.777Z,3.43
2018-12-16T12:39:15.832Z,3.33
2018-12-16T12:40:23.916Z,3.35
2018-12-16T12:41:31.970Z,3.40
2018-12-16T12:42:40.015Z,3.36
2018-12-16T12:43:48.094Z,3.43
2018-12-16T12:44:56.144Z,3.35
2018-12-16T12:46:04.171Z,3.32
2018-12-16T12:47:12.245Z,3.43
2018-12-16T12:48:20.329Z,3.40
2018-12-16T12:49:28.371Z,3.48
2018-12-16T12:50:36.432Z,3.52
2018-12-16T12:51:44.482Z,3.42
2018-12-16T12:52:52.513Z,3.35
2018-12-16T12:54:00.592Z,3.24
2018-12-16T12:55:08.645Z,3.31
2018-12-16T12:56:16.706Z,3.14
2018-12-16T12:57:24.753Z,3.20
2018-12-16T12:58:32.808Z,3.18
2018-12-16T12:59:40.861Z,3.29
2018-12-16T13:00:48.939Z,3.31
2018-12-16T13:01:56.965Z,3.35
2018-12-16T13:03:05.059Z,3.39
2018-12-16T13:04:13.092Z,3.43
2018-12-16T13:05:21.120Z,3.50
2018-12-16T13:06:29.217Z,3.58
2018-12-16T13:07:37.252Z,3.65
2018-12-16T13:08:45.305Z,3.69
2018-12-16T13:09:53.377Z,3.69
2018-12-16T13:11:01.422Z,3.79
2018-12-16T13:12:09.462Z,3.72
2018-12-16T13:13:17.537Z,3.78
2018-12-16T13:14:25.619Z,3.79
2018-12-16T13:15:33.643Z,3.80
2018-12-16T13:16:41.681Z,3.88
2018-12-16T13:17:49.777Z,3.86
2018-12-16T13:18:57.828Z,3.94
2018-12-16T13:20:05.859Z,3.91
2018-12-16T13:21:13.961Z,3.84
2018-12-16T13:22:21.974Z,3.91
2018-12-16T13:23:30.035Z,3.90
2018-12-16T13:24:38.091Z,3.87
2018-12-16T13:25:46.131Z,3.80
2018-12-16T13:26:54.204Z,3.87
2018-12-16T13:28:02.255Z,3.76
2018-12-16T13:29:10.321Z,3.72
2018-12-16T13:30:18.376Z,3.70
2018-12-16T13:31:26.448Z,3.69
2018-12-16T13:32:34.477Z,3.55
2018-12-16T13:33:42.558Z,3.57
2018-12-16T13:34:50.604Z,3.52
2018-12-16T13:35:58.650Z,3.73
2018-12-16T13:37:06.722Z,3.57
2018-12-16T13:38:14.753Z,3.60
2018-12-16T13:39:22.864Z,3.55
2018-12-16T13:40:30.917Z,3.60
2018-12-16T13:41:38.941Z,3.51
2018-12-16T13:42:46.993Z,3.47
2018-12-16T13:43:55.039Z,3.54
2018-12-16T13:45:03.114Z,3.51
2018-12-16T13:46:11.974Z,3.47
2018-12-16T13:47:19.221Z,3.52
2018-12-16T13:48:27.279Z,3.48
2018-12-16T13:49:35.353Z,3.50
2018-12-16T13:50:43.409Z,3.36
2018-12-16T13:51:51.442Z,3.42
2018-12-16T13:52:59.488Z,3.42
2018-12-16T13:54:07.569Z,3.42
2018-12-16T13:55:15.661Z,3.35
2018-12-16T13:56:23.682Z,3.39
2018-12-16T13:57:31.741Z,3.35
2018-12-16T13:58:39.780Z,3.35
2018-12-16T13:59:47.826Z,3.35
2018-12-16T14:00:55.886Z,3.35
2018-12-16T14:02:03.957Z,3.43
2018-12-16T14:03:12.011Z,3.35
2018-12-16T14:04:20.050Z,3.35
2018-12-16T14:05:28.121Z,3.35
2018-12-16T14:06:36.177Z,3.43
2018-12-16T14:07:44.233Z,3.43
2018-12-16T14:08:52.321Z,3.39
2018-12-16T14:10:00.330Z,3.35
2018-12-16T14:11:08.409Z,3.32
2018-12-16T14:12:16.437Z,3.35
2018-12-16T14:13:24.509Z,3.28
2018-12-16T14:14:32.593Z,3.24
2018-12-16T14:15:40.632Z,3.29
2018-12-16T14:16:48.672Z,3.24
2018-12-16T14:17:56.742Z,3.23
2018-12-16T14:19:04.778Z,3.28
2018-12-16T14:20:12.885Z,3.29
2018-12-16T14:21:20.918Z,3.18
2018-12-16T14:22:29.024Z,3.24
2018-12-16T14:23:37.007Z,3.24
2018-12-16T14:24:45.027Z,3.15
2018-12-16T14:25:53.127Z,3.20
2018-12-16T14:27:01.174Z,3.13
2018-12-16T14:28:09.241Z,3.10
2018-12-16T14:29:17.281Z,3.11
2018-12-16T14:30:25.328Z,3.05
2018-12-16T14:31:33.417Z,3.03
2018-12-16T14:32:41.446Z,3.03
2018-12-16T14:33:49.496Z,3.02
2018-12-16T14:34:57.564Z,3.05
2018-12-16T14:36:05.655Z,2.97
2018-12-16T14:37:13.679Z,2.95
2018-12-16T14:38:21.716Z,3.02
2018-12-16T14:39:29.802Z,2.97
2018-12-16T14:40:37.831Z,2.95
2018-12-16T14:41:45.882Z,2.96
2018-12-16T14:42:53.962Z,2.96
2018-12-16T14:44:02.015Z,2.99
2018-12-16T14:45:10.043Z,3.00
2018-12-16T14:46:18.114Z,2.96
2018-12-16T14:47:26.148Z,2.97